sensor_id;sensor_type;location;lat;lon;timestamp;P1;durP1;ratioP1;P2;durP2;ratioP2
5929;SDS011;2990;48.746;9.236;2023-06-22T00:01:02;1210.30;;;999.90;;
5929;SDS011;2990;48.746;9.236;2023-06-22T00:03:28;1216.38;;;999.90;;
5929;SDS011;2990;48.746;9.236;2023-06-22T00:05:54;1227.57;;;999.90;;
5929;SDS011;2990;48.746;9.236;2023-06-22T00:08:19;1214.25;;;999.90;;
5929;SDS011;2990;48.746;9.236;2023-06-22T00:10:45;1203.97;;;999.90;;
5929;SDS011;2990;48.746;9.236;2023-06-22T00:13:12;1216.35;;;999.90;;
5929;SDS011;2990;48.746;9.236;2023-06-22T00:15:38;1218.72;;;999.90;;
5929;SDS011;2990;48.746;9.236;2023-06-22T00:18:06;1208.60;;;999.90;;
5929;SDS011;2990;48.746;9.236;2023-06-22T00:20:31;1206.05;;;999.90;;
5929;SDS011;2990;48.746;9.236;2023-06-22T00:22:58;1198.97;;;999.90;;
5929;SDS011;2990;48.746;9.236;2023-06-22T00:25:24;1215.90;;;999.90;;
5929;SDS011;2990;48.746;9.236;2023-06-22T00:27:50;1208.53;;;999.90;;
5929;SDS011;2990;48.746;9.236;2023-06-22T00:30:16;1195.07;;;999.90;;
5929;SDS011;2990;48.746;9.236;2023-06-22T00:32:43;1169.00;;;999.90;;
5929;SDS011;2990;48.746;9.236;2023-06-22T00:35:09;1161.25;;;999.90;;
5929;SDS011;2990;48.746;9.236;2023-06-22T00:37:37;1193.53;;;999.90;;
5929;SDS011;2990;48.746;9.236;2023-06-22T00:40:03;1190.85;;;999.90;;
5929;SDS011;2990;48.746;9.236;2023-06-22T00:42:30;1168.10;;;999.90;;
5929;SDS011;2990;48.746;9.236;2023-06-22T00:44:55;1176.20;;;999.90;;
5929;SDS011;2990;48.746;9.236;2023-06-22T00:47:21;1153.78;;;999.90;;
5929;SDS011;2990;48.746;9.236;2023-06-22T00:49:47;1144.78;;;999.90;;
5929;SDS011;2990;48.746;9.236;2023-06-22T00:52:16;1153.00;;;999.90;;
5929;SDS011;2990;48.746;9.236;2023-06-22T00:54:45;1126.82;;;999.90;;
5929;SDS011;2990;48.746;9.236;2023-06-22T00:57:15;1147.40;;;999.90;;
5929;SDS011;2990;48.746;9.236;2023-06-22T00:59:43;1144.70;;;999.90;;
5929;SDS011;2990;48.746;9.236;2023-06-22T01:02:09;1154.68;;;999.90;;
5929;SDS011;2990;48.746;9.236;2023-06-22T01:04:36;1155.80;;;999.90;;
5929;SDS011;2990;48.746;9.236;2023-06-22T01:07:05;1175.95;;;999.90;;
5929;SDS011;2990;48.746;9.236;2023-06-22T01:09:35;1160.57;;;999.90;;
5929;SDS011;2990;48.746;9.236;2023-06-22T01:12:09;1165.10;;;999.90;;
5929;SDS011;2990;48.746;9.236;2023-06-22T01:14:41;1191.95;;;999.90;;
5929;SDS011;2990;48.746;9.236;2023-06-22T01:17:11;1196.85;;;999.90;;
5929;SDS011;2990;48.746;9.236;2023-06-22T01:19:45;1212.40;;;999.90;;
5929;SDS011;2990;48.746;9.236;2023-06-22T01:22:13;1175.15;;;999.90;;
5929;SDS011;2990;48.746;9.236;2023-06-22T01:30:22;1216.63;;;999.90;;
5929;SDS011;2990;48.746;9.236;2023-06-22T01:32:50;1206.38;;;999.90;;
5929;SDS011;2990;48.746;9.236;2023-06-22T01:35:16;1178.22;;;999.90;;
5929;SDS011;2990;48.746;9.236;2023-06-22T01:37:43;1205.32;;;999.90;;
5929;SDS011;2990;48.746;9.236;2023-06-22T01:40:10;1186.82;;;999.90;;
5929;SDS011;2990;48.746;9.236;2023-06-22T01:42:36;1188.90;;;999.90;;
5929;SDS011;2990;48.746;9.236;2023-06-22T01:45:02;1171.32;;;999.90;;
5929;SDS011;2990;48.746;9.236;2023-06-22T01:47:29;1163.30;;;999.90;;
5929;SDS011;2990;48.746;9.236;2023-06-22T01:49:55;1133.82;;;999.90;;
5929;SDS011;2990;48.746;9.236;2023-06-22T01:52:21;1144.60;;;999.90;;
5929;SDS011;2990;48.746;9.236;2023-06-22T01:54:47;1109.75;;;999.90;;
5929;SDS011;2990;48.746;9.236;2023-06-22T01:57:13;1113.20;;;999.90;;
5929;SDS011;2990;48.746;9.236;2023-06-22T01:59:41;1102.75;;;999.90;;
5929;SDS011;2990;48.746;9.236;2023-06-22T02:02:21;1111.70;;;999.90;;
5929;SDS011;2990;48.746;9.236;2023-06-22T02:04:54;1087.20;;;995.78;;
5929;SDS011;2990;48.746;9.236;2023-06-22T02:07:29;1093.30;;;998.40;;
5929;SDS011;2990;48.746;9.236;2023-06-22T02:09:58;1103.75;;;999.90;;
5929;SDS011;2990;48.746;9.236;2023-06-22T02:12:26;1125.97;;;999.90;;
5929;SDS011;2990;48.746;9.236;2023-06-22T02:14:53;1103.68;;;999.70;;
5929;SDS011;2990;48.746;9.236;2023-06-22T02:17:19;1141.35;;;999.90;;
5929;SDS011;2990;48.746;9.236;2023-06-22T02:19:45;1150.57;;;999.90;;
5929;SDS011;2990;48.746;9.236;2023-06-22T02:22:11;1134.40;;;999.90;;
5929;SDS011;2990;48.746;9.236;2023-06-22T02:24:38;1135.63;;;999.90;;
5929;SDS011;2990;48.746;9.236;2023-06-22T02:27:04;1161.15;;;999.90;;
5929;SDS011;2990;48.746;9.236;2023-06-22T02:29:32;1189.32;;;999.90;;
5929;SDS011;2990;48.746;9.236;2023-06-22T02:31:57;1202.32;;;999.90;;
5929;SDS011;2990;48.746;9.236;2023-06-22T02:34:23;1217.07;;;999.90;;
5929;SDS011;2990;48.746;9.236;2023-06-22T02:36:49;1239.95;;;999.90;;
5929;SDS011;2990;48.746;9.236;2023-06-22T02:39:19;1241.18;;;999.90;;
5929;SDS011;2990;48.746;9.236;2023-06-22T02:41:47;1203.53;;;999.90;;
5929;SDS011;2990;48.746;9.236;2023-06-22T02:44:13;1224.70;;;999.90;;
5929;SDS011;2990;48.746;9.236;2023-06-22T02:46:38;1177.28;;;999.90;;
5929;SDS011;2990;48.746;9.236;2023-06-22T02:49:04;1196.00;;;999.90;;
5929;SDS011;2990;48.746;9.236;2023-06-22T02:51:30;1203.03;;;999.90;;
5929;SDS011;2990;48.746;9.236;2023-06-22T02:53:58;1199.90;;;999.90;;
5929;SDS011;2990;48.746;9.236;2023-06-22T02:56:24;1224.50;;;999.90;;
5929;SDS011;2990;48.746;9.236;2023-06-22T02:58:50;1202.95;;;999.90;;
5929;SDS011;2990;48.746;9.236;2023-06-22T03:01:16;1164.70;;;999.90;;
5929;SDS011;2990;48.746;9.236;2023-06-22T03:03:41;1161.20;;;999.90;;
5929;SDS011;2990;48.746;9.236;2023-06-22T03:06:07;1169.90;;;999.90;;
5929;SDS011;2990;48.746;9.236;2023-06-22T03:08:33;1166.72;;;999.90;;
5929;SDS011;2990;48.746;9.236;2023-06-22T03:10:59;1150.47;;;999.90;;
5929;SDS011;2990;48.746;9.236;2023-06-22T03:13:24;1151.10;;;999.90;;
5929;SDS011;2990;48.746;9.236;2023-06-22T03:15:50;1143.65;;;999.90;;
5929;SDS011;2990;48.746;9.236;2023-06-22T03:18:16;1125.57;;;999.90;;
5929;SDS011;2990;48.746;9.236;2023-06-22T03:20:41;1152.95;;;999.90;;
5929;SDS011;2990;48.746;9.236;2023-06-22T03:23:07;1199.10;;;999.90;;
5929;SDS011;2990;48.746;9.236;2023-06-22T03:25:32;1199.40;;;999.90;;
5929;SDS011;2990;48.746;9.236;2023-06-22T03:27:58;1232.00;;;999.90;;
5929;SDS011;2990;48.746;9.236;2023-06-22T03:30:25;1257.18;;;999.90;;
5929;SDS011;2990;48.746;9.236;2023-06-22T03:32:51;1276.50;;;999.90;;
5929;SDS011;2990;48.746;9.236;2023-06-22T03:35:16;1281.45;;;999.90;;
5929;SDS011;2990;48.746;9.236;2023-06-22T03:37:42;1259.88;;;999.90;;
5929;SDS011;2990;48.746;9.236;2023-06-22T03:40:08;1270.60;;;999.90;;
5929;SDS011;2990;48.746;9.236;2023-06-22T03:42:34;1306.60;;;999.90;;
5929;SDS011;2990;48.746;9.236;2023-06-22T03:45:03;1291.05;;;999.90;;
5929;SDS011;2990;48.746;9.236;2023-06-22T03:47:29;1337.10;;;999.90;;
5929;SDS011;2990;48.746;9.236;2023-06-22T03:49:54;1328.15;;;999.90;;
5929;SDS011;2990;48.746;9.236;2023-06-22T03:52:21;1293.57;;;999.90;;
5929;SDS011;2990;48.746;9.236;2023-06-22T03:54:47;1309.18;;;999.90;;
5929;SDS011;2990;48.746;9.236;2023-06-22T03:57:13;1314.15;;;999.90;;
5929;SDS011;2990;48.746;9.236;2023-06-22T03:59:38;1294.28;;;999.90;;
5929;SDS011;2990;48.746;9.236;2023-06-22T04:02:04;1286.25;;;999.90;;
5929;SDS011;2990;48.746;9.236;2023-06-22T04:04:29;1267.93;;;999.90;;
5929;SDS011;2990;48.746;9.236;2023-06-22T04:06:55;1303.72;;;999.90;;
5929;SDS011;2990;48.746;9.236;2023-06-22T04:09:21;1322.63;;;999.90;;
5929;SDS011;2990;48.746;9.236;2023-06-22T04:11:46;1261.28;;;999.90;;
5929;SDS011;2990;48.746;9.236;2023-06-22T04:14:12;1303.93;;;999.90;;
5929;SDS011;2990;48.746;9.236;2023-06-22T04:16:37;1266.65;;;999.90;;
5929;SDS011;2990;48.746;9.236;2023-06-22T04:19:03;1283.38;;;999.90;;
5929;SDS011;2990;48.746;9.236;2023-06-22T04:21:28;1326.93;;;999.90;;
5929;SDS011;2990;48.746;9.236;2023-06-22T04:23:54;1306.88;;;999.90;;
5929;SDS011;2990;48.746;9.236;2023-06-22T04:26:20;1292.43;;;999.90;;
5929;SDS011;2990;48.746;9.236;2023-06-22T04:28:46;1320.00;;;999.90;;
5929;SDS011;2990;48.746;9.236;2023-06-22T04:31:16;1345.13;;;999.90;;
5929;SDS011;2990;48.746;9.236;2023-06-22T04:33:42;1345.25;;;999.90;;
5929;SDS011;2990;48.746;9.236;2023-06-22T04:36:08;1314.97;;;999.90;;
5929;SDS011;2990;48.746;9.236;2023-06-22T04:38:33;1327.95;;;999.90;;
5929;SDS011;2990;48.746;9.236;2023-06-22T04:40:59;1317.57;;;999.90;;
5929;SDS011;2990;48.746;9.236;2023-06-22T04:43:28;1267.63;;;999.90;;
5929;SDS011;2990;48.746;9.236;2023-06-22T04:45:55;1264.15;;;999.90;;
5929;SDS011;2990;48.746;9.236;2023-06-22T04:48:21;1286.53;;;999.90;;
5929;SDS011;2990;48.746;9.236;2023-06-22T04:50:47;1273.72;;;999.90;;
5929;SDS011;2990;48.746;9.236;2023-06-22T04:53:12;1291.68;;;999.90;;
5929;SDS011;2990;48.746;9.236;2023-06-22T04:55:39;1288.32;;;999.90;;
5929;SDS011;2990;48.746;9.236;2023-06-22T04:58:06;1260.82;;;999.90;;
5929;SDS011;2990;48.746;9.236;2023-06-22T05:00:32;1268.60;;;999.90;;
5929;SDS011;2990;48.746;9.236;2023-06-22T05:03:01;1293.72;;;999.90;;
5929;SDS011;2990;48.746;9.236;2023-06-22T05:05:28;1304.80;;;999.90;;
5929;SDS011;2990;48.746;9.236;2023-06-22T05:07:56;1278.38;;;999.90;;
5929;SDS011;2990;48.746;9.236;2023-06-22T05:10:24;1278.00;;;999.90;;
5929;SDS011;2990;48.746;9.236;2023-06-22T05:12:50;1244.63;;;999.90;;
5929;SDS011;2990;48.746;9.236;2023-06-22T05:15:15;1202.55;;;999.90;;
5929;SDS011;2990;48.746;9.236;2023-06-22T05:17:41;1204.18;;;999.90;;
5929;SDS011;2990;48.746;9.236;2023-06-22T05:20:12;1211.10;;;999.90;;
5929;SDS011;2990;48.746;9.236;2023-06-22T05:22:39;1205.88;;;999.90;;
5929;SDS011;2990;48.746;9.236;2023-06-22T05:25:08;1187.78;;;999.90;;
5929;SDS011;2990;48.746;9.236;2023-06-22T05:27:34;1158.75;;;999.90;;
5929;SDS011;2990;48.746;9.236;2023-06-22T05:30:04;1160.68;;;999.90;;
5929;SDS011;2990;48.746;9.236;2023-06-22T05:32:33;1151.22;;;999.90;;
5929;SDS011;2990;48.746;9.236;2023-06-22T05:34:59;1130.13;;;999.90;;
5929;SDS011;2990;48.746;9.236;2023-06-22T05:37:25;1116.63;;;999.90;;
5929;SDS011;2990;48.746;9.236;2023-06-22T05:39:51;1065.10;;;978.88;;
5929;SDS011;2990;48.746;9.236;2023-06-22T05:42:17;1093.45;;;998.78;;
5929;SDS011;2990;48.746;9.236;2023-06-22T05:44:42;1089.03;;;997.60;;
5929;SDS011;2990;48.746;9.236;2023-06-22T05:47:08;1066.97;;;980.72;;
5929;SDS011;2990;48.746;9.236;2023-06-22T05:49:33;1105.50;;;999.90;;
5929;SDS011;2990;48.746;9.236;2023-06-22T05:51:59;1148.80;;;999.90;;
5929;SDS011;2990;48.746;9.236;2023-06-22T05:54:25;1161.35;;;999.90;;
5929;SDS011;2990;48.746;9.236;2023-06-22T05:56:52;1176.35;;;999.90;;
5929;SDS011;2990;48.746;9.236;2023-06-22T05:59:19;1256.25;;;999.90;;
5929;SDS011;2990;48.746;9.236;2023-06-22T06:01:44;1250.38;;;999.90;;
5929;SDS011;2990;48.746;9.236;2023-06-22T06:04:14;1225.03;;;999.90;;
5929;SDS011;2990;48.746;9.236;2023-06-22T06:06:41;1205.47;;;999.90;;
5929;SDS011;2990;48.746;9.236;2023-06-22T06:09:06;1249.88;;;999.90;;
5929;SDS011;2990;48.746;9.236;2023-06-22T06:11:32;1269.00;;;999.90;;
5929;SDS011;2990;48.746;9.236;2023-06-22T06:13:58;1234.47;;;999.90;;
5929;SDS011;2990;48.746;9.236;2023-06-22T06:16:24;1275.22;;;999.90;;
5929;SDS011;2990;48.746;9.236;2023-06-22T06:18:49;1251.57;;;999.90;;
5929;SDS011;2990;48.746;9.236;2023-06-22T06:21:15;1252.60;;;999.90;;
5929;SDS011;2990;48.746;9.236;2023-06-22T06:23:41;1193.88;;;999.90;;
5929;SDS011;2990;48.746;9.236;2023-06-22T06:26:07;1252.68;;;999.90;;
5929;SDS011;2990;48.746;9.236;2023-06-22T06:28:33;1241.88;;;999.90;;
5929;SDS011;2990;48.746;9.236;2023-06-22T06:30:59;1221.25;;;999.90;;
5929;SDS011;2990;48.746;9.236;2023-06-22T06:33:25;1272.22;;;999.90;;
5929;SDS011;2990;48.746;9.236;2023-06-22T06:35:50;1272.93;;;999.90;;
5929;SDS011;2990;48.746;9.236;2023-06-22T06:38:16;1291.65;;;999.90;;
5929;SDS011;2990;48.746;9.236;2023-06-22T06:40:41;1299.07;;;999.90;;
5929;SDS011;2990;48.746;9.236;2023-06-22T06:43:07;1278.28;;;999.90;;
5929;SDS011;2990;48.746;9.236;2023-06-22T06:45:32;1299.38;;;999.90;;
5929;SDS011;2990;48.746;9.236;2023-06-22T06:47:59;1327.07;;;999.90;;
5929;SDS011;2990;48.746;9.236;2023-06-22T06:50:25;1289.63;;;999.90;;
5929;SDS011;2990;48.746;9.236;2023-06-22T06:52:51;1445.15;;;999.90;;
5929;SDS011;2990;48.746;9.236;2023-06-22T06:55:16;1501.30;;;999.90;;
5929;SDS011;2990;48.746;9.236;2023-06-22T06:57:42;1510.45;;;999.90;;
5929;SDS011;2990;48.746;9.236;2023-06-22T07:00:09;1346.55;;;999.90;;
5929;SDS011;2990;48.746;9.236;2023-06-22T07:02:38;1481.20;;;999.90;;
5929;SDS011;2990;48.746;9.236;2023-06-22T07:05:08;1523.53;;;999.90;;
5929;SDS011;2990;48.746;9.236;2023-06-22T07:07:34;1547.82;;;999.90;;
5929;SDS011;2990;48.746;9.236;2023-06-22T07:10:00;1548.82;;;999.90;;
5929;SDS011;2990;48.746;9.236;2023-06-22T07:12:26;1529.95;;;999.90;;
5929;SDS011;2990;48.746;9.236;2023-06-22T07:14:51;1342.43;;;999.90;;
5929;SDS011;2990;48.746;9.236;2023-06-22T07:17:18;1517.13;;;999.90;;
5929;SDS011;2990;48.746;9.236;2023-06-22T07:19:43;1488.55;;;999.90;;
5929;SDS011;2990;48.746;9.236;2023-06-22T07:22:09;1387.82;;;999.90;;
5929;SDS011;2990;48.746;9.236;2023-06-22T07:24:34;1409.30;;;999.90;;
5929;SDS011;2990;48.746;9.236;2023-06-22T07:27:00;1373.55;;;999.90;;
5929;SDS011;2990;48.746;9.236;2023-06-22T07:29:27;1394.70;;;999.90;;
5929;SDS011;2990;48.746;9.236;2023-06-22T07:31:53;1318.93;;;999.90;;
5929;SDS011;2990;48.746;9.236;2023-06-22T07:34:21;1290.03;;;999.90;;
5929;SDS011;2990;48.746;9.236;2023-06-22T07:36:47;1260.72;;;999.90;;
5929;SDS011;2990;48.746;9.236;2023-06-22T07:39:13;1305.32;;;999.90;;
5929;SDS011;2990;48.746;9.236;2023-06-22T07:41:39;1272.47;;;999.90;;
5929;SDS011;2990;48.746;9.236;2023-06-22T07:44:07;1273.93;;;999.90;;
5929;SDS011;2990;48.746;9.236;2023-06-22T07:46:33;1276.30;;;999.90;;
5929;SDS011;2990;48.746;9.236;2023-06-22T07:48:59;1265.15;;;999.90;;
5929;SDS011;2990;48.746;9.236;2023-06-22T07:51:26;1256.40;;;999.90;;
5929;SDS011;2990;48.746;9.236;2023-06-22T07:53:52;1220.38;;;999.90;;
5929;SDS011;2990;48.746;9.236;2023-06-22T07:56:17;1259.95;;;999.90;;
5929;SDS011;2990;48.746;9.236;2023-06-22T07:58:45;1314.78;;;999.90;;
5929;SDS011;2990;48.746;9.236;2023-06-22T08:01:11;1357.68;;;999.90;;
5929;SDS011;2990;48.746;9.236;2023-06-22T08:03:37;1316.10;;;999.90;;
5929;SDS011;2990;48.746;9.236;2023-06-22T08:06:04;1287.93;;;999.90;;
5929;SDS011;2990;48.746;9.236;2023-06-22T08:08:30;1304.63;;;999.90;;
5929;SDS011;2990;48.746;9.236;2023-06-22T08:10:56;1289.80;;;999.90;;
5929;SDS011;2990;48.746;9.236;2023-06-22T08:13:22;1304.03;;;999.90;;
5929;SDS011;2990;48.746;9.236;2023-06-22T08:15:47;1360.35;;;999.90;;
5929;SDS011;2990;48.746;9.236;2023-06-22T08:18:13;1388.63;;;999.90;;
5929;SDS011;2990;48.746;9.236;2023-06-22T08:20:39;1581.25;;;999.90;;
5929;SDS011;2990;48.746;9.236;2023-06-22T08:23:05;1506.47;;;999.90;;
5929;SDS011;2990;48.746;9.236;2023-06-22T08:25:34;1571.03;;;999.90;;
5929;SDS011;2990;48.746;9.236;2023-06-22T08:28:01;1622.47;;;999.90;;
5929;SDS011;2990;48.746;9.236;2023-06-22T08:30:29;1677.85;;;999.90;;
5929;SDS011;2990;48.746;9.236;2023-06-22T08:32:54;1611.43;;;999.90;;
5929;SDS011;2990;48.746;9.236;2023-06-22T08:35:21;1662.05;;;999.90;;
5929;SDS011;2990;48.746;9.236;2023-06-22T08:37:48;1694.22;;;999.90;;
5929;SDS011;2990;48.746;9.236;2023-06-22T08:40:17;1708.70;;;999.90;;
5929;SDS011;2990;48.746;9.236;2023-06-22T08:42:44;1845.60;;;999.90;;
5929;SDS011;2990;48.746;9.236;2023-06-22T08:45:11;1757.82;;;999.90;;
5929;SDS011;2990;48.746;9.236;2023-06-22T08:47:37;1833.75;;;999.90;;
5929;SDS011;2990;48.746;9.236;2023-06-22T08:50:03;1753.88;;;999.90;;
5929;SDS011;2990;48.746;9.236;2023-06-22T08:52:29;1870.85;;;999.90;;
5929;SDS011;2990;48.746;9.236;2023-06-22T08:54:54;1999.90;;;999.90;;
5929;SDS011;2990;48.746;9.236;2023-06-22T08:57:20;1999.90;;;999.90;;
5929;SDS011;2990;48.746;9.236;2023-06-22T08:59:47;1999.90;;;999.90;;
5929;SDS011;2990;48.746;9.236;2023-06-22T09:02:12;1999.90;;;999.90;;
5929;SDS011;2990;48.746;9.236;2023-06-22T09:04:38;1999.90;;;999.90;;
5929;SDS011;2990;48.746;9.236;2023-06-22T09:07:03;1996.53;;;999.90;;
5929;SDS011;2990;48.746;9.236;2023-06-22T09:09:29;1999.90;;;999.90;;
5929;SDS011;2990;48.746;9.236;2023-06-22T09:11:55;1999.90;;;999.90;;
5929;SDS011;2990;48.746;9.236;2023-06-22T09:14:20;1999.90;;;999.90;;
5929;SDS011;2990;48.746;9.236;2023-06-22T09:16:46;1990.18;;;999.90;;
5929;SDS011;2990;48.746;9.236;2023-06-22T09:19:11;1999.90;;;999.90;;
5929;SDS011;2990;48.746;9.236;2023-06-22T09:21:37;1999.90;;;999.90;;
5929;SDS011;2990;48.746;9.236;2023-06-22T09:24:03;1999.90;;;999.90;;
5929;SDS011;2990;48.746;9.236;2023-06-22T09:26:29;1999.90;;;999.90;;
5929;SDS011;2990;48.746;9.236;2023-06-22T09:28:54;1999.90;;;999.90;;
5929;SDS011;2990;48.746;9.236;2023-06-22T09:31:20;1999.90;;;999.90;;
5929;SDS011;2990;48.746;9.236;2023-06-22T09:33:52;1999.90;;;999.90;;
5929;SDS011;2990;48.746;9.236;2023-06-22T09:36:19;1999.90;;;999.90;;
5929;SDS011;2990;48.746;9.236;2023-06-22T09:38:48;1999.90;;;999.90;;
5929;SDS011;2990;48.746;9.236;2023-06-22T09:41:20;1999.90;;;999.90;;
5929;SDS011;2990;48.746;9.236;2023-06-22T09:43:45;1999.90;;;999.90;;
5929;SDS011;2990;48.746;9.236;2023-06-22T09:46:11;1999.90;;;999.90;;
5929;SDS011;2990;48.746;9.236;2023-06-22T09:48:37;1999.90;;;999.90;;
5929;SDS011;2990;48.746;9.236;2023-06-22T09:51:02;1999.90;;;999.90;;
5929;SDS011;2990;48.746;9.236;2023-06-22T09:53:28;1999.90;;;999.90;;
5929;SDS011;2990;48.746;9.236;2023-06-22T09:55:53;1999.90;;;999.90;;
5929;SDS011;2990;48.746;9.236;2023-06-22T09:58:19;1999.90;;;999.90;;
5929;SDS011;2990;48.746;9.236;2023-06-22T10:00:44;1999.90;;;999.90;;
5929;SDS011;2990;48.746;9.236;2023-06-22T10:03:10;1999.90;;;999.90;;
5929;SDS011;2990;48.746;9.236;2023-06-22T10:05:35;1999.90;;;999.90;;
5929;SDS011;2990;48.746;9.236;2023-06-22T10:08:01;1999.90;;;999.90;;
5929;SDS011;2990;48.746;9.236;2023-06-22T10:10:26;1999.90;;;999.90;;
5929;SDS011;2990;48.746;9.236;2023-06-22T10:12:56;1826.15;;;999.90;;
5929;SDS011;2990;48.746;9.236;2023-06-22T10:15:23;1917.03;;;999.90;;
5929;SDS011;2990;48.746;9.236;2023-06-22T10:17:49;1972.45;;;999.90;;
5929;SDS011;2990;48.746;9.236;2023-06-22T10:20:14;1999.90;;;999.90;;
5929;SDS011;2990;48.746;9.236;2023-06-22T10:22:42;1999.90;;;999.90;;
5929;SDS011;2990;48.746;9.236;2023-06-22T10:25:12;1999.90;;;999.90;;
5929;SDS011;2990;48.746;9.236;2023-06-22T10:27:38;1999.90;;;999.90;;
5929;SDS011;2990;48.746;9.236;2023-06-22T10:30:07;1999.90;;;999.90;;
5929;SDS011;2990;48.746;9.236;2023-06-22T10:32:37;1999.90;;;999.90;;
5929;SDS011;2990;48.746;9.236;2023-06-22T10:35:03;1999.90;;;999.90;;
5929;SDS011;2990;48.746;9.236;2023-06-22T10:37:29;1999.90;;;999.90;;
5929;SDS011;2990;48.746;9.236;2023-06-22T10:39:55;1999.90;;;999.90;;
5929;SDS011;2990;48.746;9.236;2023-06-22T10:42:20;1999.90;;;999.90;;
5929;SDS011;2990;48.746;9.236;2023-06-22T10:44:46;1972.85;;;999.90;;
5929;SDS011;2990;48.746;9.236;2023-06-22T10:47:11;1999.90;;;999.90;;
5929;SDS011;2990;48.746;9.236;2023-06-22T10:49:40;1999.90;;;999.90;;
5929;SDS011;2990;48.746;9.236;2023-06-22T10:52:07;1974.20;;;999.90;;
5929;SDS011;2990;48.746;9.236;2023-06-22T10:54:33;1999.90;;;999.90;;
5929;SDS011;2990;48.746;9.236;2023-06-22T10:57:00;1999.90;;;999.90;;
5929;SDS011;2990;48.746;9.236;2023-06-22T10:59:26;1999.90;;;999.90;;
5929;SDS011;2990;48.746;9.236;2023-06-22T11:01:52;1999.90;;;999.90;;
5929;SDS011;2990;48.746;9.236;2023-06-22T11:04:18;1999.90;;;999.90;;
5929;SDS011;2990;48.746;9.236;2023-06-22T11:06:44;1999.90;;;999.90;;
5929;SDS011;2990;48.746;9.236;2023-06-22T11:09:09;1999.90;;;999.90;;
5929;SDS011;2990;48.746;9.236;2023-06-22T11:11:35;1999.90;;;999.90;;
5929;SDS011;2990;48.746;9.236;2023-06-22T11:14:00;1999.90;;;999.90;;
5929;SDS011;2990;48.746;9.236;2023-06-22T11:16:26;1999.90;;;999.90;;
5929;SDS011;2990;48.746;9.236;2023-06-22T11:18:52;1999.90;;;999.90;;
5929;SDS011;2990;48.746;9.236;2023-06-22T11:21:17;1999.90;;;999.90;;
5929;SDS011;2990;48.746;9.236;2023-06-22T11:23:43;1999.90;;;999.90;;
5929;SDS011;2990;48.746;9.236;2023-06-22T11:26:08;1999.90;;;999.90;;
5929;SDS011;2990;48.746;9.236;2023-06-22T11:28:34;1999.90;;;999.90;;
5929;SDS011;2990;48.746;9.236;2023-06-22T11:30:59;1999.90;;;999.90;;
5929;SDS011;2990;48.746;9.236;2023-06-22T11:33:25;1999.90;;;999.90;;
5929;SDS011;2990;48.746;9.236;2023-06-22T11:35:50;1999.90;;;999.90;;
5929;SDS011;2990;48.746;9.236;2023-06-22T11:38:16;1999.90;;;999.90;;
5929;SDS011;2990;48.746;9.236;2023-06-22T11:40:42;1999.90;;;999.90;;
5929;SDS011;2990;48.746;9.236;2023-06-22T11:43:07;1999.90;;;999.90;;
5929;SDS011;2990;48.746;9.236;2023-06-22T11:45:33;1999.90;;;999.90;;
5929;SDS011;2990;48.746;9.236;2023-06-22T11:47:58;1997.00;;;999.90;;
5929;SDS011;2990;48.746;9.236;2023-06-22T11:50:24;1941.07;;;999.90;;
5929;SDS011;2990;48.746;9.236;2023-06-22T11:52:49;1914.80;;;999.90;;
5929;SDS011;2990;48.746;9.236;2023-06-22T11:55:15;1873.25;;;999.90;;
5929;SDS011;2990;48.746;9.236;2023-06-22T11:57:52;1862.60;;;999.90;;
5929;SDS011;2990;48.746;9.236;2023-06-22T12:00:23;1942.20;;;999.90;;
5929;SDS011;2990;48.746;9.236;2023-06-22T12:02:52;1955.47;;;999.90;;
5929;SDS011;2990;48.746;9.236;2023-06-22T12:05:18;1925.80;;;999.90;;
5929;SDS011;2990;48.746;9.236;2023-06-22T12:07:49;1837.05;;;999.90;;
5929;SDS011;2990;48.746;9.236;2023-06-22T12:10:15;1765.43;;;999.90;;
5929;SDS011;2990;48.746;9.236;2023-06-22T12:12:41;1788.13;;;999.90;;
5929;SDS011;2990;48.746;9.236;2023-06-22T12:15:07;1767.65;;;999.90;;
5929;SDS011;2990;48.746;9.236;2023-06-22T12:17:34;1764.82;;;999.90;;
5929;SDS011;2990;48.746;9.236;2023-06-22T12:19:59;1811.25;;;999.90;;
5929;SDS011;2990;48.746;9.236;2023-06-22T12:22:26;1785.53;;;999.90;;
5929;SDS011;2990;48.746;9.236;2023-06-22T12:24:52;1767.53;;;999.90;;
5929;SDS011;2990;48.746;9.236;2023-06-22T12:27:17;1750.50;;;999.90;;
5929;SDS011;2990;48.746;9.236;2023-06-22T12:29:45;1753.30;;;999.90;;
5929;SDS011;2990;48.746;9.236;2023-06-22T12:32:11;1780.25;;;999.90;;
5929;SDS011;2990;48.746;9.236;2023-06-22T12:34:38;1805.18;;;999.90;;
5929;SDS011;2990;48.746;9.236;2023-06-22T12:37:04;1764.25;;;999.90;;
5929;SDS011;2990;48.746;9.236;2023-06-22T12:39:31;1755.57;;;999.90;;
5929;SDS011;2990;48.746;9.236;2023-06-22T12:41:57;1871.07;;;999.90;;
5929;SDS011;2990;48.746;9.236;2023-06-22T12:44:22;1862.45;;;999.90;;
5929;SDS011;2990;48.746;9.236;2023-06-22T12:46:48;1923.78;;;999.90;;
5929;SDS011;2990;48.746;9.236;2023-06-22T12:49:13;1999.25;;;999.90;;
5929;SDS011;2990;48.746;9.236;2023-06-22T12:51:40;1971.32;;;999.90;;
5929;SDS011;2990;48.746;9.236;2023-06-22T12:54:07;1946.57;;;999.90;;
5929;SDS011;2990;48.746;9.236;2023-06-22T12:56:33;1999.90;;;999.90;;
5929;SDS011;2990;48.746;9.236;2023-06-22T12:58:59;1999.90;;;999.90;;
5929;SDS011;2990;48.746;9.236;2023-06-22T13:01:26;1999.90;;;999.90;;
5929;SDS011;2990;48.746;9.236;2023-06-22T13:03:53;1975.22;;;999.90;;
5929;SDS011;2990;48.746;9.236;2023-06-22T13:06:18;1999.90;;;999.90;;
5929;SDS011;2990;48.746;9.236;2023-06-22T13:08:44;1999.90;;;999.90;;
5929;SDS011;2990;48.746;9.236;2023-06-22T13:11:09;1999.90;;;999.90;;
5929;SDS011;2990;48.746;9.236;2023-06-22T13:13:35;1980.70;;;999.90;;
5929;SDS011;2990;48.746;9.236;2023-06-22T13:16:01;1999.90;;;999.90;;
5929;SDS011;2990;48.746;9.236;2023-06-22T13:18:26;1999.90;;;999.90;;
5929;SDS011;2990;48.746;9.236;2023-06-22T13:20:52;1999.90;;;999.90;;
5929;SDS011;2990;48.746;9.236;2023-06-22T13:23:19;1999.90;;;999.90;;
5929;SDS011;2990;48.746;9.236;2023-06-22T13:25:46;1998.38;;;999.90;;
5929;SDS011;2990;48.746;9.236;2023-06-22T13:28:11;1999.90;;;999.90;;
5929;SDS011;2990;48.746;9.236;2023-06-22T13:30:38;1999.90;;;999.90;;
5929;SDS011;2990;48.746;9.236;2023-06-22T13:33:05;1994.70;;;999.90;;
5929;SDS011;2990;48.746;9.236;2023-06-22T13:35:30;1942.95;;;999.90;;
5929;SDS011;2990;48.746;9.236;2023-06-22T13:37:56;1832.00;;;999.90;;
5929;SDS011;2990;48.746;9.236;2023-06-22T13:40:21;1842.25;;;999.90;;
5929;SDS011;2990;48.746;9.236;2023-06-22T13:42:47;1875.00;;;999.90;;
5929;SDS011;2990;48.746;9.236;2023-06-22T13:45:12;1942.90;;;999.90;;
5929;SDS011;2990;48.746;9.236;2023-06-22T13:47:38;1926.75;;;999.90;;
5929;SDS011;2990;48.746;9.236;2023-06-22T13:50:04;1890.80;;;999.90;;
5929;SDS011;2990;48.746;9.236;2023-06-22T13:52:30;1736.68;;;999.90;;
5929;SDS011;2990;48.746;9.236;2023-06-22T13:54:56;1727.90;;;999.90;;
5929;SDS011;2990;48.746;9.236;2023-06-22T13:57:22;1643.13;;;999.90;;
5929;SDS011;2990;48.746;9.236;2023-06-22T13:59:47;1728.47;;;999.90;;
5929;SDS011;2990;48.746;9.236;2023-06-22T14:02:13;1708.38;;;999.90;;
5929;SDS011;2990;48.746;9.236;2023-06-22T14:04:38;1712.30;;;999.90;;
5929;SDS011;2990;48.746;9.236;2023-06-22T14:07:04;1657.30;;;999.90;;
5929;SDS011;2990;48.746;9.236;2023-06-22T14:09:30;1466.18;;;999.90;;